Date,TemperatureHighF,TemperatureAvgF,TemperatureLowF,DewpointHighF,DewpointAvgF,DewpointLowF,HumidityHigh,HumidityAvg,HumidityLow,PressureMaxIn,PressureMinIn,WindSpeedMaxMPH,WindSpeedAvgMPH,GustSpeedMaxMPH,PrecipitationSumIn
2013-1-1,24,7,-10,-100,-100,-100,0,0,100,0.00,40.00,0,-999,0,0.00
2013-1-2,20,1,-16,-100,-100,-100,0,0,100,0.00,40.00,0,-999,0,0.00
2013-1-3,19,-11,-23,-100,-100,-100,0,0,100,0.00,40.00,0,-999,0,0.00
2013-1-4,28,-4,-20,-100,-100,-100,0,0,100,0.00,40.00,0,-999,0,0.00
2013-1-5,23,-5,-21,-100,-100,-100,0,0,100,0.00,40.00,0,-999,0,0.00
2013-1-6,20,4,-11,-100,-100,-100,0,0,100,0.00,40.00,0,-999,0,0.00
2013-1-7,18,3,-2,-100,-100,-100,0,0,100,0.00,40.00,0,-999,0,0.00
2013-1-8,19,18,18,-100,-100,-100,0,0,100,0.00,40.00,0,-999,0,0.00
2013-1-9,27,26,25,-100,-100,-100,0,0,100,0.00,40.00,0,-999,0,0.00
2013-1-10,29,29,29,-100,-100,-100,0,0,100,0.00,40.00,0,-999,0,0.00
2013-1-11,1,1,1,-100,-100,-100,0,0,100,0.00,40.00,0,-999,0,0.00
2013-1-18,38,18,-10,-100,-100,-100,0,0,100,0.00,40.00,0,-999,0,0.00
2013-1-19,24,9,-14,-100,-100,-100,0,0,100,0.00,40.00,0,-999,0,0.00
2013-1-20,37,20,1,-100,-100,-100,0,0,100,0.00,40.00,0,-999,0,0.00
2013-1-21,35,16,-13,-100,-100,-100,0,0,100,0.00,40.00,0,-999,0,0.00
2013-1-22,26,9,-18,-100,-100,-100,0,0,100,0.00,40.00,0,-999,0,0.00
2013-1-23,35,21,-4,-100,-100,-100,0,0,100,0.00,40.00,0,-999,0,0.00
2013-1-24,32,28,23,-100,-100,-100,0,0,100,0.00,40.00,0,-999,0,0.00
2013-1-25,38,32,28,-100,-100,-100,0,0,100,0.00,40.00,0,-999,0,0.00
2013-1-26,38,33,30,-100,-100,-100,0,0,100,0.00,40.00,0,-999,0,0.00
2013-1-27,30,23,19,-100,-100,-100,0,0,100,0.00,40.00,0,-999,0,0.00
2013-1-28,32,17,12,-100,-100,-100,0,0,100,0.00,40.00,0,-999,0,0.00
2013-1-29,31,13,7,-100,-100,-100,0,0,100,0.00,40.00,0,-999,0,0.00
2013-1-30,29,22,13,-100,-100,-100,0,0,100,0.00,40.00,0,-999,0,0.00
2013-1-31,32,27,24,-100,-100,-100,0,0,100,0.00,40.00,0,-999,0,0.00
2013-2-1,42,26,22,-100,-100,-100,0,0,100,0.00,40.00,0,-999,0,0.00
2013-2-2,31,26,23,-100,-100,-100,0,0,100,0.00,40.00,0,-999,0,0.00
2013-2-3,43,24,15,-100,-100,-100,0,0,100,0.00,40.00,0,-999,0,0.00
2013-2-4,31,24,20,-100,-100,-100,0,0,100,0.00,40.00,0,-999,0,0.00
2013-2-5,43,29,21,-100,-100,-100,0,0,100,0.00,40.00,0,-999,0,0.00
2013-2-6,40,22,8,-100,-100,-100,0,0,100,0.00,40.00,0,-999,0,0.00
2013-2-7,38,25,15,-100,-100,-100,0,0,100,0.00,40.00,0,-999,0,0.00
2013-2-8,37,22,9,-100,-100,-100,0,0,100,0.00,40.00,0,-999,0,0.00
2013-2-9,36,23,3,-100,-100,-100,0,0,100,0.00,40.00,0,-999,0,0.00
2013-2-10,23,16,-6,-100,-100,-100,0,0,100,0.00,40.00,0,-999,0,0.00
2013-2-11,29,2,-24,-100,-100,-100,0,0,100,0.00,40.00,0,-999,0,0.00
2013-2-12,26,15,5,-100,-100,-100,0,0,100,0.00,40.00,0,-999,0,0.00
2013-2-13,31,23,18,-100,-100,-100,0,0,100,0.00,40.00,0,-999,0,0.00
2013-2-14,37,20,4,-100,-100,-100,0,0,100,0.00,40.00,0,-999,0,0.00
2013-2-15,38,20,5,-100,-100,-100,0,0,100,0.00,40.00,0,-999,0,0.00
2013-2-16,32,27,21,-100,-100,-100,0,0,100,0.00,40.00,0,-999,0,0.00
2013-2-17,35,24,16,-100,-100,-100,0,0,100,0.00,40.00,0,-999,0,0.00
2013-2-18,36,17,-3,-100,-100,-100,0,0,100,0.00,40.00,0,-999,0,0.00
2013-2-19,39,15,-3,-100,-100,-100,0,0,100,0.00,40.00,0,-999,0,0.00
2013-2-20,33,19,5,-100,-100,-100,0,0,100,0.00,40.00,0,-999,0,0.00
2013-2-21,36,19,-1,-100,-100,-100,0,0,100,0.00,40.00,0,-999,0,0.00
2013-2-22,29,18,2,-100,-100,-100,0,0,100,0.00,40.00,0,-999,0,0.00
2013-2-23,29,21,7,-100,-100,-100,0,0,100,0.00,40.00,0,-999,0,0.00
2013-2-24,40,15,-12,-100,-100,-100,0,0,100,0.00,40.00,0,-999,0,0.00
2013-2-25,27,16,2,-100,-100,-100,0,0,100,0.00,40.00,0,-999,0,0.00
2013-2-26,34,12,-3,-100,-100,-100,0,0,100,0.00,40.00,0,-999,0,0.00
2013-2-27,30,16,4,-100,-100,-100,0,0,100,0.00,40.00,0,-999,0,0.00
2013-2-28,33,17,4,-100,-100,-100,0,0,100,0.00,40.00,0,-999,0,0.00
2013-3-1,36,27,20,-100,-100,-100,0,0,100,0.00,40.00,0,-999,0,0.00
2013-3-2,40,32,27,-100,-100,-100,0,0,100,0.00,40.00,0,-999,0,0.00
2013-3-3,36,28,9,-100,-100,-100,0,0,100,0.00,40.00,0,-999,0,0.00
2013-3-4,27,10,-7,-100,-100,-100,0,0,100,0.00,40.00,0,-999,0,0.00
2013-3-5,37,14,-12,-100,-100,-100,0,0,100,0.00,40.00,0,-999,0,0.00
2013-3-6,33,22,2,-100,-100,-100,0,0,100,0.00,40.00,0,-999,0,0.00
2013-3-7,47,27,18,-100,-100,-100,0,0,100,0.00,40.00,0,-999,0,0.00
2013-3-8,45,28,19,-100,-100,-100,0,0,100,0.00,40.00,0,-999,0,0.00
2013-3-9,36,23,3,-100,-100,-100,0,0,100,0.00,40.00,0,-999,0,0.00
2013-3-10,47,22,-6,-100,-100,-100,0,0,100,0.00,40.00,0,-999,0,0.00
2013-3-11,47,31,15,-100,-100,-100,0,0,100,0.00,40.00,0,-999,0,0.00
2013-3-12,40,22,2,-100,-100,-100,0,0,100,0.00,40.00,0,-999,0,0.00
2013-3-13,52,38,31,-100,-100,-100,0,0,100,0.00,40.00,0,-999,0,0.00
2013-3-14,56,38,21,-100,-100,-100,0,0,100,0.00,40.00,0,-999,0,0.00
2013-3-15,59,42,29,-100,-100,-100,0,0,100,0.00,40.00,0,-999,0,0.00
2013-3-16,51,34,21,-100,-100,-100,0,0,100,0.00,40.00,0,-999,0,0.00
2013-3-17,36,27,14,-100,-100,-100,0,0,100,0.00,40.00,0,-999,0,0.00
2013-3-18,35,18,2,-100,-100,-100,0,0,100,0.00,40.00,0,-999,0,0.00
2013-3-19,46,25,12,-100,-100,-100,0,0,100,0.00,40.00,0,-999,0,0.00
2013-3-20,44,26,16,-100,-100,-100,0,0,100,0.00,40.00,0,-999,0,0.00
2013-3-21,39,29,18,-100,-100,-100,0,0,100,0.00,40.00,0,-999,0,0.00
2013-3-22,37,15,-2,-100,-100,-100,0,0,100,0.00,40.00,0,-999,0,0.00
2013-3-23,31,9,-10,-100,-100,-100,0,0,100,0.00,40.00,0,-999,0,0.00
2013-3-24,36,8,-16,-100,-100,-100,0,0,100,0.00,40.00,0,-999,0,0.00
2013-3-25,41,12,-13,-100,-100,-100,0,0,100,0.00,40.00,0,-999,0,0.00
2013-3-26,48,24,8,-100,-100,-100,0,0,100,0.00,40.00,0,-999,0,0.00
2013-3-27,47,32,22,-100,-100,-100,0,0,100,0.00,40.00,0,-999,0,0.00
2013-3-28,58,34,17,-100,-100,-100,0,0,100,0.00,40.00,0,-999,0,0.00
2013-3-29,55,37,22,-100,-100,-100,0,0,100,0.00,40.00,0,-999,0,0.00
2013-3-30,57,38,25,-100,-100,-100,0,0,100,0.00,40.00,0,-999,0,0.00
2013-3-31,61,36,16,-100,-100,-100,0,0,100,0.00,40.00,0,-999,0,0.00
2013-4-1,59,36,17,-100,-100,-100,0,0,100,0.00,40.00,0,-999,0,0.00
2013-4-2,63,37,17,-100,-100,-100,0,0,100,0.00,40.00,0,-999,0,0.00
2013-4-3,59,40,26,-100,-100,-100,0,0,100,0.00,40.00,0,-999,0,0.00
2013-4-4,58,41,26,-100,-100,-100,0,0,100,0.00,40.00,0,-999,0,0.00
2013-4-5,47,38,32,-100,-100,-100,0,0,100,0.00,40.00,0,-999,0,0.00
2013-4-6,44,35,29,-100,-100,-100,0,0,100,0.00,40.00,0,-999,0,0.00
2013-4-7,41,34,29,-100,-100,-100,0,0,100,0.00,40.00,0,-999,0,0.00
2013-4-8,30,25,16,-100,-100,-100,0,0,100,0.00,40.00,0,-999,0,0.00
2013-4-9,38,22,12,-100,-100,-100,0,0,100,0.00,40.00,0,-999,0,0.00
2013-4-10,47,26,5,-100,-100,-100,0,0,100,0.00,40.00,0,-999,0,0.00
2013-4-11,53,39,27,-100,-100,-100,0,0,100,0.00,40.00,0,-999,0,0.00
2013-4-12,47,34,19,-100,-100,-100,0,0,100,0.00,40.00,0,-999,0,0.00
2013-4-13,39,33,23,-100,-100,-100,0,0,100,0.00,40.00,0,-999,0,0.00
2013-4-14,41,27,14,-100,-100,-100,0,0,100,0.00,40.00,0,-999,0,0.00
2013-4-15,36,24,13,-100,-100,-100,0,0,100,0.00,40.00,0,-999,0,0.00
2013-4-16,27,20,12,-100,-100,-100,0,0,100,0.00,40.00,0,-999,0,0.00
2013-4-17,28,18,1,-100,-100,-100,0,0,100,0.00,40.00,0,-999,0,0.00
2013-4-18,45,24,1,-100,-100,-100,0,0,100,0.00,40.00,0,-999,0,0.00
2013-4-19,40,33,27,-100,-100,-100,0,0,100,0.00,40.00,0,-999,0,0.00
2013-4-20,52,35,26,-100,-100,-100,0,0,100,0.00,40.00,0,-999,0,0.00
2013-4-21,46,35,26,-100,-100,-100,0,0,100,0.00,40.00,0,-999,0,0.00
2013-4-22,30,24,14,-100,-100,-100,0,0,100,0.00,40.00,0,-999,0,0.00
2013-4-23,44,24,2,-100,-100,-100,0,0,100,0.00,40.00,0,-999,0,0.00
2013-4-24,48,32,14,-100,-100,-100,0,0,100,0.00,40.00,0,-999,0,0.00
2013-4-25,57,41,25,-100,-100,-100,0,0,100,0.00,40.00,0,-999,0,0.00
2013-4-26,63,43,20,-100,-100,-100,0,0,100,0.00,40.00,0,-999,0,0.00
2013-4-27,64,48,25,-100,-100,-100,0,0,100,0.00,40.00,0,-999,0,0.00
2013-4-28,57,46,36,-100,-100,-100,0,0,100,0.00,40.00,0,-999,0,0.00
2013-4-29,53,39,28,-100,-100,-100,0,0,100,0.00,40.00,0,-999,0,0.00
2013-4-30,44,34,26,-100,-100,-100,0,0,100,0.00,40.00,0,-999,0,0.00
2013-5-1,40,30,24,-100,-100,-100,0,0,100,0.00,40.00,0,-999,0,0.00
2013-5-2,55,34,12,-100,-100,-100,0,0,100,0.00,40.00,0,-999,0,0.00
2013-5-3,56,39,23,-100,-100,-100,0,0,100,0.00,40.00,0,-999,0,0.00
2013-5-4,50,41,33,-100,-100,-100,0,0,100,0.00,40.00,0,-999,0,0.00
2013-5-5,56,43,26,-100,-100,-100,0,0,100,0.00,40.00,0,-999,0,0.00
2013-5-6,62,46,25,-100,-100,-100,0,0,100,0.00,40.00,0,-999,0,0.00
2013-5-7,64,46,26,-100,-100,-100,0,0,100,0.00,40.00,0,-999,0,0.00
2013-5-8,64,49,27,-100,-100,-100,0,0,100,0.00,40.00,0,-999,0,0.00
2013-5-9,67,45,26,-100,-100,-100,0,0,100,0.00,40.00,0,-999,0,0.00
2013-5-10,69,47,26,-100,-100,-100,0,0,100,0.00,40.00,0,-999,0,0.00
2013-5-11,73,50,25,-100,-100,-100,0,0,100,0.00,40.00,0,-999,0,0.00
2013-5-12,76,54,28,-100,-100,-100,0,0,100,0.00,40.00,0,-999,0,0.00
2013-5-13,76,58,34,-100,-100,-100,0,0,100,0.00,40.00,0,-999,0,0.00
2013-5-14,74,58,40,-100,-100,-100,0,0,100,0.00,40.00,0,-999,0,0.00
2013-5-15,71,52,27,-100,-100,-100,0,0,100,0.00,40.00,0,-999,0,0.00
2013-5-16,63,48,35,-100,-100,-100,0,0,100,0.00,40.00,0,-999,0,0.00
2013-5-17,50,45,41,-100,-100,-100,0,0,100,0.00,40.00,0,-999,0,0.00
2013-5-18,55,44,38,-100,-100,-100,0,0,100,0.00,40.00,0,-999,0,0.00
2013-5-19,49,41,35,-100,-100,-100,0,0,100,0.00,40.00,0,-999,0,0.00
2013-5-20,55,46,38,-100,-100,-100,0,0,100,0.00,40.00,0,-999,0,0.00
2013-5-21,64,51,27,-100,-100,-100,0,0,100,0.00,40.00,0,-999,0,0.00
2013-5-22,69,51,35,-100,-100,-100,0,0,100,0.00,40.00,0,-999,0,0.00
2013-5-23,63,46,35,-100,-100,-100,0,0,100,0.00,40.00,0,-999,0,0.00
2013-5-24,58,44,31,-100,-100,-100,0,0,100,0.00,40.00,0,-999,0,0.00
2013-5-25,65,47,26,-100,-100,-100,0,0,100,0.00,40.00,0,-999,0,0.00
2013-5-26,64,48,27,-100,-100,-100,0,0,100,0.00,40.00,0,-999,0,0.00
2013-5-27,58,44,32,-100,-100,-100,0,0,100,0.00,40.00,0,-999,0,0.00
2013-5-28,54,45,38,-100,-100,-100,0,0,100,0.00,40.00,0,-999,0,0.00
2013-5-29,52,43,38,-100,-100,-100,0,0,100,0.00,40.00,0,-999,0,0.00
2013-5-30,41,38,37,-100,-100,-100,0,0,100,0.00,40.00,0,-999,0,0.00
2013-5-31,57,50,31,-100,-100,-100,0,0,100,0.00,40.00,0,-999,0,0.00
2013-6-1,68,45,22,-100,-100,-100,0,0,100,0.00,40.00,0,-999,0,0.00
2013-6-2,70,53,27,-100,-100,-100,0,0,100,0.00,40.00,0,-999,0,0.00
2013-6-3,57,45,28,-100,-100,-100,0,0,100,0.00,40.00,0,-999,0,0.00
2013-6-4,57,46,32,-100,-100,-100,0,0,100,0.00,40.00,0,-999,0,0.00
2013-6-5,73,49,22,-100,-100,-100,0,0,100,0.00,40.00,0,-999,0,0.00
2013-6-6,74,57,30,-100,-100,-100,0,0,100,0.00,40.00,0,-999,0,0.00
2013-6-7,77,56,32,-100,-100,-100,0,0,100,0.00,40.00,0,-999,0,0.00
2013-6-8,77,62,40,-100,-100,-100,0,0,100,0.00,40.00,0,-999,0,0.00
2013-6-9,78,61,32,-100,-100,-100,0,0,100,0.00,40.00,0,-999,0,0.00
2013-6-10,79,63,42,-100,-100,-100,0,0,100,0.00,40.00,0,-999,0,0.00
2013-6-11,74,59,38,-100,-100,-100,0,0,100,0.00,40.00,0,-999,0,0.00
2013-6-12,66,53,41,-100,-100,-100,0,0,100,0.00,40.00,0,-999,0,0.00
2013-6-13,70,53,41,-100,-100,-100,0,0,100,0.00,40.00,0,-999,0,0.00
2013-6-14,49,40,31,-100,-100,-100,0,0,100,0.00,40.00,0,-999,0,0.00
2013-6-15,72,48,31,-100,-100,-100,0,0,100,0.00,40.00,0,-999,0,0.00
2013-6-16,76,51,26,-100,-100,-100,0,0,100,0.00,40.00,0,-999,0,0.00
2013-6-17,80,59,31,-100,-100,-100,0,0,100,0.00,40.00,0,-999,0,0.00
2013-6-18,81,60,32,-100,-100,-100,0,0,100,0.00,40.00,0,-999,0,0.00
2013-6-19,71,53,39,-100,-100,-100,0,0,100,0.00,40.00,0,-999,0,0.00
2013-6-20,53,41,36,-100,-100,-100,0,0,100,0.00,40.00,0,-999,0,0.00
2013-6-22,56,47,40,-100,-100,-100,0,0,100,0.00,40.00,0,-999,0,0.00
2013-6-23,69,51,29,-100,-100,-100,0,0,100,0.00,40.00,0,-999,0,0.00
2013-6-24,72,56,33,-100,-100,-100,0,0,100,0.00,40.00,0,-999,0,0.00
2013-6-25,67,53,46,-100,-100,-100,0,0,100,0.00,40.00,0,-999,0,0.00
2013-6-26,70,59,49,-100,-100,-100,0,0,100,0.00,40.00,0,-999,0,0.00
2013-6-27,84,63,38,-100,-100,-100,0,0,100,0.00,40.00,0,-999,0,0.00
2013-6-28,90,68,40,-100,-100,-100,0,0,100,0.00,40.00,0,-999,0,0.00
2013-6-29,87,62,42,-100,-100,-100,0,0,100,0.00,40.00,0,-999,0,0.00
2013-6-30,89,68,43,-100,-100,-100,0,0,100,0.00,40.00,0,-999,0,0.00
2013-7-1,88,69,43,-100,-100,-100,0,0,100,0.00,40.00,0,-999,0,0.00
2013-7-2,89,68,40,-100,-100,-100,0,0,100,0.00,40.00,0,-999,0,0.00
2013-7-3,92,72,46,-100,-100,-100,0,0,100,0.00,40.00,0,-999,0,0.00
2013-7-4,86,65,46,-100,-100,-100,0,0,100,0.00,40.00,0,-999,0,0.00
2013-7-5,77,59,47,-100,-100,-100,0,0,100,0.00,40.00,0,-999,0,0.00
2013-7-6,79,52,43,-100,-100,-100,0,0,100,0.00,40.00,0,-999,0,0.00
2013-7-7,82,58,44,-100,-100,-100,0,0,100,0.00,40.00,0,-999,0,0.00
2013-7-8,76,52,40,-100,-100,-100,0,0,100,0.00,40.00,0,-999,0,0.00
2013-7-9,85,63,39,-100,-100,-100,0,0,100,0.00,40.00,0,-999,0,0.00
2013-7-10,88,64,38,-100,-100,-100,0,0,100,0.00,40.00,0,-999,0,0.00
2013-7-11,80,60,43,-100,-100,-100,0,0,100,0.00,40.00,0,-999,0,0.00
2013-7-12,76,62,43,-100,-100,-100,0,0,100,0.00,40.00,0,-999,0,0.00
2013-7-13,80,63,39,-100,-100,-100,0,0,100,0.00,40.00,0,-999,0,0.00
2013-7-14,84,65,38,-100,-100,-100,0,0,100,0.00,40.00,0,-999,0,0.00
2013-7-15,87,63,40,-100,-100,-100,0,0,100,0.00,40.00,0,-999,0,0.00
2013-7-16,74,62,40,-100,-100,-100,0,0,100,0.00,40.00,0,-999,0,0.00
2013-7-17,88,68,52,-100,-100,-100,0,0,100,0.00,40.00,0,-999,0,0.00
2013-7-18,85,68,46,-100,-100,-100,0,0,100,0.00,40.00,0,-999,0,0.00
2013-7-19,88,65,37,-100,-100,-100,0,0,100,0.00,40.00,0,-999,0,0.00
2013-7-20,88,64,36,-100,-100,-100,0,0,100,0.00,40.00,0,-999,0,0.00
2013-7-21,88,65,36,-100,-100,-100,0,0,100,0.00,40.00,0,-999,0,0.00
2013-7-22,87,66,34,-100,-100,-100,0,0,100,0.00,40.00,0,-999,0,0.00
2013-7-23,87,64,32,-100,-100,-100,0,0,100,0.00,40.00,0,-999,0,0.00
2013-7-24,87,66,39,-100,-100,-100,0,0,100,0.00,40.00,0,-999,0,0.00
2013-7-25,85,66,36,-100,-100,-100,0,0,100,0.00,40.00,0,-999,0,0.00
2013-7-26,91,66,37,-100,-100,-100,0,0,100,0.00,40.00,0,-999,0,0.00
2013-7-27,73,60,40,-100,-100,-100,0,0,100,0.00,40.00,0,-999,0,0.00
2013-7-28,78,56,38,-100,-100,-100,0,0,100,0.00,40.00,0,-999,0,0.00
2013-7-29,78,58,35,-100,-100,-100,0,0,100,0.00,40.00,0,-999,0,0.00
2013-7-30,77,54,35,-100,-100,-100,0,0,100,0.00,40.00,0,-999,0,0.00
2013-7-31,82,59,32,-100,-100,-100,0,0,100,0.00,40.00,0,-999,0,0.00
2013-8-1,86,68,46,-100,-100,-100,0,0,100,0.00,40.00,0,-999,0,0.00
2013-8-2,75,60,42,-100,-100,-100,0,0,100,0.00,40.00,0,-999,0,0.00
2013-8-3,82,58,30,-100,-100,-100,0,0,100,0.00,40.00,0,-999,0,0.00
2013-8-4,87,60,31,-100,-100,-100,0,0,100,0.00,40.00,0,-999,0,0.00
2013-8-5,85,61,32,-100,-100,-100,0,0,100,0.00,40.00,0,-999,0,0.00
2013-8-6,84,60,35,-100,-100,-100,0,0,100,0.00,40.00,0,-999,0,0.00
2013-8-7,85,62,32,-100,-100,-100,0,0,100,0.00,40.00,0,-999,0,0.00
2013-8-8,83,62,33,-100,-100,-100,0,0,100,0.00,40.00,0,-999,0,0.00
2013-8-9,77,59,44,-100,-100,-100,0,0,100,0.00,40.00,0,-999,0,0.00
2013-8-10,86,62,35,-100,-100,-100,0,0,100,0.00,40.00,0,-999,0,0.00
2013-8-11,87,62,34,-100,-100,-100,0,0,100,0.00,40.00,0,-999,0,0.00
2013-8-12,79,63,41,-100,-100,-100,0,0,100,0.00,40.00,0,-999,0,0.00
2013-8-13,81,56,31,-100,-100,-100,0,0,100,0.00,40.00,0,-999,0,0.00
2013-8-14,81,57,33,-100,-100,-100,0,0,100,0.00,40.00,0,-999,0,0.00
2013-8-15,90,60,32,-100,-100,-100,0,0,100,0.00,40.00,0,-999,0,0.00
2013-8-16,92,63,32,-100,-100,-100,0,0,100,0.00,40.00,0,-999,0,0.00
2013-8-17,91,66,36,-100,-100,-100,0,0,100,0.00,40.00,0,-999,0,0.00
2013-8-18,89,69,51,-100,-100,-100,0,0,100,0.00,40.00,0,-999,0,0.00
2013-8-19,88,64,37,-100,-100,-100,0,0,100,0.00,40.00,0,-999,0,0.00
2013-8-20,90,69,42,-100,-100,-100,0,0,100,0.00,40.00,0,-999,0,0.00
2013-8-21,83,64,42,-100,-100,-100,0,0,100,0.00,40.00,0,-999,0,0.00
2013-8-22,84,60,39,-100,-100,-100,0,0,100,0.00,40.00,0,-999,0,0.00
2013-8-23,83,65,46,-100,-100,-100,0,0,100,0.00,40.00,0,-999,0,0.00
2013-8-24,81,63,51,-100,-100,-100,0,0,100,0.00,40.00,0,-999,0,0.00
2013-8-25,83,64,39,-100,-100,-100,0,0,100,0.00,40.00,0,-999,0,0.00
2013-8-26,77,64,49,-100,-100,-100,0,0,100,0.00,40.00,0,-999,0,0.00
2013-8-27,78,56,43,-100,-100,-100,0,0,100,0.00,40.00,0,-999,0,0.00
2013-8-28,80,69,48,-100,-100,-100,0,0,100,0.00,40.00,0,-999,0,0.00
2013-8-29,83,62,38,-100,-100,-100,0,0,100,0.00,40.00,0,-999,0,0.00
2013-8-30,85,66,39,-100,-100,-100,0,0,100,0.00,40.00,0,-999,0,0.00
2013-8-31,86,61,37,-100,-100,-100,0,0,100,0.00,40.00,0,-999,0,0.00
2013-9-1,88,60,30,-100,-100,-100,0,0,100,0.00,40.00,0,-999,0,0.00
2013-9-2,64,53,36,-100,-100,-100,0,0,100,0.00,40.00,0,-999,0,0.00
2013-9-3,81,61,44,-100,-100,-100,0,0,100,0.00,40.00,0,-999,0,0.00
2013-9-4,82,64,51,-100,-100,-100,0,0,100,0.00,40.00,0,-999,0,0.00
2013-9-5,81,57,39,-100,-100,-100,0,0,100,0.00,40.00,0,-999,0,0.00
2013-9-6,81,57,39,-100,-100,-100,0,0,100,0.00,40.00,0,-999,0,0.00
2013-9-7,76,57,41,-100,-100,-100,0,0,100,0.00,40.00,0,-999,0,0.00
2013-9-8,73,52,43,-100,-100,-100,0,0,100,0.00,40.00,0,-999,0,0.00
2013-9-9,64,51,38,-100,-100,-100,0,0,100,0.00,40.00,0,-999,0,0.00
2013-9-10,79,51,28,-100,-100,-100,0,0,100,0.00,40.00,0,-999,0,0.00
2013-9-11,76,63,31,-100,-100,-100,0,0,100,0.00,40.00,0,-999,0,0.00
2013-9-12,60,50,40,-100,-100,-100,0,0,100,0.00,40.00,0,-999,0,0.00
2013-9-13,76,52,38,-100,-100,-100,0,0,100,0.00,40.00,0,-999,0,0.00
2013-9-14,63,52,45,-100,-100,-100,0,0,100,0.00,40.00,0,-999,0,0.00
2013-9-15,69,52,42,-100,-100,-100,0,0,100,0.00,40.00,0,-999,0,0.00
2013-9-16,75,57,40,-100,-100,-100,0,0,100,0.00,40.00,0,-999,0,0.00
2013-9-17,58,49,41,-100,-100,-100,0,0,100,0.00,40.00,0,-999,0,0.00
2013-9-18,43,40,32,-100,-100,-100,0,0,100,0.00,40.00,0,-999,0,0.00
2013-9-19,58,41,29,-100,-100,-100,0,0,100,0.00,40.00,0,-999,0,0.00
2013-9-20,71,42,23,-100,-100,-100,0,0,100,0.00,40.00,0,-999,0,0.00
2013-9-21,73,48,27,-100,-100,-100,0,0,100,0.00,40.00,0,-999,0,0.00
2013-9-22,62,49,39,-100,-100,-100,0,0,100,0.00,40.00,0,-999,0,0.00
2013-9-23,60,46,35,-100,-100,-100,0,0,100,0.00,40.00,0,-999,0,0.00
2013-9-24,59,44,31,-100,-100,-100,0,0,100,0.00,40.00,0,-999,0,0.00
2013-9-25,46,38,33,-100,-100,-100,0,0,100,0.00,40.00,0,-999,0,0.00
2013-9-26,44,36,31,-100,-100,-100,0,0,100,0.00,40.00,0,-999,0,0.00
2013-9-27,47,35,30,-100,-100,-100,0,0,100,0.00,40.00,0,-999,0,0.00
2013-9-28,49,39,33,-100,-100,-100,0,0,100,0.00,40.00,0,-999,0,0.00
2013-9-29,48,44,41,-100,-100,-100,0,0,100,0.00,40.00,0,-999,0,0.00
2013-9-30,53,44,34,-100,-100,-100,0,0,100,0.00,40.00,0,-999,0,0.00
2013-10-1,50,41,34,-100,-100,-100,0,0,100,0.00,40.00,0,-999,0,0.00
2013-10-2,51,37,26,-100,-100,-100,0,0,100,0.00,40.00,0,-999,0,0.00
2013-10-3,38,32,27,-100,-100,-100,0,0,100,0.00,40.00,0,-999,0,0.00
2013-10-4,38,30,21,-100,-100,-100,0,0,100,0.00,40.00,0,-999,0,0.00
2013-10-5,50,28,13,-100,-100,-100,0,0,100,0.00,40.00,0,-999,0,0.00
2013-10-6,59,34,19,-100,-100,-100,0,0,100,0.00,40.00,0,-999,0,0.00
2013-10-7,62,41,20,-100,-100,-100,0,0,100,0.00,40.00,0,-999,0,0.00
2013-10-8,51,41,25,-100,-100,-100,0,0,100,0.00,40.00,0,-999,0,0.00
2013-10-9,53,35,18,-100,-100,-100,0,0,100,0.00,40.00,0,-999,0,0.00
2013-10-10,54,36,27,-100,-100,-100,0,0,100,0.00,40.00,0,-999,0,0.00
2013-10-11,49,37,26,-100,-100,-100,0,0,100,0.00,40.00,0,-999,0,0.00
2013-10-12,43,31,21,-100,-100,-100,0,0,100,0.00,40.00,0,-999,0,0.00
2013-10-13,37,31,27,-100,-100,-100,0,0,100,0.00,40.00,0,-999,0,0.00
2013-10-14,38,33,28,-100,-100,-100,0,0,100,0.00,40.00,0,-999,0,0.00
2013-10-15,41,24,14,-100,-100,-100,0,0,100,0.00,40.00,0,-999,0,0.00
2013-10-16,42,28,13,-100,-100,-100,0,0,100,0.00,40.00,0,-999,0,0.00
2013-10-17,45,33,27,-100,-100,-100,0,0,100,0.00,40.00,0,-999,0,0.00
2013-10-18,50,29,17,-100,-100,-100,0,0,100,0.00,40.00,0,-999,0,0.00
2013-10-19,49,34,22,-100,-100,-100,0,0,100,0.00,40.00,0,-999,0,0.00
2013-10-20,53,34,24,-100,-100,-100,0,0,100,0.00,40.00,0,-999,0,0.00
2013-10-21,57,34,17,-100,-100,-100,0,0,100,0.00,40.00,0,-999,0,0.00
2013-10-22,62,33,20,-100,-100,-100,0,0,100,0.00,40.00,0,-999,0,0.00
2013-10-23,64,33,19,-100,-100,-100,0,0,100,0.00,40.00,0,-999,0,0.00
2013-10-24,66,34,19,-100,-100,-100,0,0,100,0.00,40.00,0,-999,0,0.00
2013-10-25,65,33,19,-100,-100,-100,0,0,100,0.00,40.00,0,-999,0,0.00
2013-10-26,64,35,18,-100,-100,-100,0,0,100,0.00,40.00,0,-999,0,0.00
2013-10-27,56,32,19,-100,-100,-100,0,0,100,0.00,40.00,0,-999,0,0.00
2013-10-28,41,34,26,-100,-100,-100,0,0,100,0.00,40.00,0,-999,0,0.00
2013-10-29,36,29,24,-100,-100,-100,0,0,100,0.00,40.00,0,-999,0,0.00
2013-10-30,35,32,30,-100,-100,-100,0,0,100,0.00,40.00,0,-999,0,0.00
2013-10-31,34,30,25,-100,-100,-100,0,0,100,0.00,40.00,0,-999,0,0.00
2013-11-1,42,28,18,-100,-100,-100,0,0,100,0.00,40.00,0,-999,0,0.00
2013-11-2,49,37,29,-100,-100,-100,0,0,100,0.00,40.00,0,-999,0,0.00
2013-11-3,40,25,12,-100,-100,-100,0,0,100,0.00,40.00,0,-999,0,0.00
2013-11-4,30,19,3,-100,-100,-100,0,0,100,0.00,40.00,0,-999,0,0.00
2013-11-5,27,16,5,-100,-100,-100,0,0,100,0.00,40.00,0,-999,0,0.00
2013-11-6,38,27,21,-100,-100,-100,0,0,100,0.00,40.00,0,-999,0,0.00
2013-11-7,40,34,29,-100,-100,-100,0,0,100,0.00,40.00,0,-999,0,0.00
2013-11-8,37,32,26,-100,-100,-100,0,0,100,0.00,40.00,0,-999,0,0.00
2013-11-9,40,31,23,-100,-100,-100,0,0,100,0.00,40.00,0,-999,0,0.00
2013-11-10,47,30,19,-100,-100,-100,0,0,100,0.00,40.00,0,-999,0,0.00
2013-11-11,52,33,21,-100,-100,-100,0,0,100,0.00,40.00,0,-999,0,0.00
2013-11-12,51,27,13,-100,-100,-100,0,0,100,0.00,40.00,0,-999,0,0.00
2013-11-13,40,32,25,-100,-100,-100,0,0,100,0.00,40.00,0,-999,0,0.00
2013-11-14,33,28,18,-100,-100,-100,0,0,100,0.00,40.00,0,-999,0,0.00
2013-11-15,31,23,14,-100,-100,-100,0,0,100,0.00,40.00,0,-999,0,0.00
2013-11-16,28,23,13,-100,-100,-100,0,0,100,0.00,40.00,0,-999,0,0.00
2013-11-17,28,21,12,-100,-100,-100,0,0,100,0.00,40.00,0,-999,0,0.00
2013-11-18,44,31,27,-100,-100,-100,0,0,100,0.00,40.00,0,-999,0,0.00
2013-11-19,38,33,28,-100,-100,-100,0,0,100,0.00,40.00,0,-999,0,0.00
2013-11-20,37,29,13,-100,-100,-100,0,0,100,0.00,40.00,0,-999,0,0.00
2013-11-21,28,10,-5,-100,-100,-100,0,0,100,0.00,40.00,0,-999,0,0.00
2013-11-22,26,7,-19,-100,-100,-100,0,0,100,0.00,40.00,0,-999,0,0.00
2013-11-23,34,14,-12,-100,-100,-100,0,0,100,0.00,40.00,0,-999,0,0.00
2013-11-24,35,17,-6,-100,-100,-100,0,0,100,0.00,40.00,0,-999,0,0.00
2013-11-25,40,21,5,-100,-100,-100,0,0,100,0.00,40.00,0,-999,0,0.00
2013-11-26,42,19,1,-100,-100,-100,0,0,100,0.00,40.00,0,-999,0,0.00
2013-11-27,45,22,4,-100,-100,-100,0,0,100,0.00,40.00,0,-999,0,0.00
2013-11-28,39,25,5,-100,-100,-100,0,0,100,0.00,40.00,0,-999,0,0.00
2013-11-29,44,25,2,-100,-100,-100,0,0,100,0.00,40.00,0,-999,0,0.00
2013-11-30,35,28,19,-100,-100,-100,0,0,100,0.00,40.00,0,-999,0,0.00
2013-12-1,32,30,28,-100,-100,-100,0,0,100,0.00,40.00,0,-999,0,0.00
2013-12-2,35,31,19,-100,-100,-100,0,0,100,0.00,40.00,0,-999,0,0.00
2013-12-3,19,5,-11,-100,-100,-100,0,0,100,0.00,40.00,0,-999,0,0.00
2013-12-4,11,-7,-19,-100,-100,-100,0,0,100,0.00,40.00,0,-999,0,0.00
2013-12-5,3,-17,-28,-100,-100,-100,0,0,100,0.00,40.00,0,-999,0,0.00
2013-12-6,2,-16,-32,-100,-100,-100,0,0,100,0.00,40.00,0,-999,0,0.00
2013-12-7,9,-5,-16,-100,-100,-100,0,0,100,0.00,40.00,0,-999,0,0.00
2013-12-8,4,-9,-27,-100,-100,-100,0,0,100,0.00,40.00,0,-999,0,0.00
2013-12-9,1,-4,-15,-100,-100,-100,0,0,100,0.00,40.00,0,-999,0,0.00
2013-12-10,10,4,1,-100,-100,-100,0,0,100,0.00,40.00,0,-999,0,0.00
2013-12-11,22,8,2,-100,-100,-100,0,0,100,0.00,40.00,0,-999,0,0.00
2013-12-12,27,8,-5,-100,-100,-100,0,0,100,0.00,40.00,0,-999,0,0.00
2013-12-13,28,12,-3,-100,-100,-100,0,0,100,0.00,40.00,0,-999,0,0.00
2013-12-14,22,19,13,-100,-100,-100,0,0,100,0.00,40.00,0,-999,0,0.00
2013-12-15,28,22,13,-100,-100,-100,0,0,100,0.00,40.00,0,-999,0,0.00
2013-12-16,34,20,11,-100,-100,-100,0,0,100,0.00,40.00,0,-999,0,0.00
2013-12-17,37,23,6,-100,-100,-100,0,0,100,0.00,40.00,0,-999,0,0.00
2013-12-18,39,29,12,-100,-100,-100,0,0,100,0.00,40.00,0,-999,0,0.00
2013-12-19,24,15,-9,-100,-100,-100,0,0,100,0.00,40.00,0,-999,0,0.00
2013-12-20,14,3,-15,-100,-100,-100,0,0,100,0.00,40.00,0,-999,0,0.00
2013-12-21,25,17,12,-100,-100,-100,0,0,100,0.00,40.00,0,-999,0,0.00
2013-12-22,22,17,13,-100,-100,-100,0,0,100,0.00,40.00,0,-999,0,0.00
2013-12-23,29,24,11,-100,-100,-100,0,0,100,0.00,40.00,0,-999,0,0.00
2013-12-24,28,22,6,-100,-100,-100,0,0,100,0.00,40.00,0,-999,0,0.00
2013-12-25,27,21,16,-100,-100,-100,0,0,100,0.00,40.00,0,-999,0,0.00
2013-12-26,34,20,6,-100,-100,-100,0,0,100,0.00,40.00,0,-999,0,0.00
2013-12-27,38,19,-6,-100,-100,-100,0,0,100,0.00,40.00,0,-999,0,0.00
2013-12-28,34,22,6,-100,-100,-100,0,0,100,0.00,40.00,0,-999,0,0.00
2013-12-29,19,13,-1,-100,-100,-100,0,0,100,0.00,40.00,0,-999,0,0.00
2013-12-30,25,20,17,-100,-100,-100,0,0,100,0.00,40.00,0,-999,0,0.00
2013-12-31,26,23,20,-100,-100,-100,0,0,100,0.00,40.00,0,-999,0,0.00
2014-1-1,31,20,10,-100,-100,-100,0,0,100,0.00,40.00,0,-999,0,0.00
2014-1-2,28,25,16,-100,-100,-100,0,0,100,0.00,40.00,0,-999,0,0.00